Time;durP1;ratioP1;P1;durP2;ratioP2;P2;SDS_P1;SDS_P2;PMS_P1;PMS_P2;Temp;Humidity;BMP_temperature;BMP_pressure;BME280_temperature;BME280_humidity;BME280_pressure;Samples;Min_cycle;Max_cycle;Signal;HPM_P1;HPM_P2
2022/10/14 00:02:07;;;;;;;19.75;17.73;;;;;;;;;;5258430;28;20278;-82
2022/10/14 00:04:38;;;;;;;23.52;20.88;;;;;;;;;;5257881;28;20021;-83
2022/10/14 00:07:08;;;;;;;22.05;19.90;;;;;;;;;;5241652;28;20058;-81
2022/10/14 00:09:40;;;;;;;22.45;20.70;;;;;;;;;;5259465;28;20074;-81
2022/10/14 00:12:11;;;;;;;20.70;18.75;;;;;;;;;;5259116;28;20078;-83
2022/10/14 00:14:41;;;;;;;24.20;21.63;;;;;;;;;;5241084;28;20032;-83
2022/10/14 00:17:11;;;;;;;24.90;22.92;;;;;;;;;;5263158;28;20028;-82
2022/10/14 00:19:41;;;;;;;24.55;21.98;;;;;;;;;;5262157;28;20492;-82
2022/10/14 00:22:12;;;;;;;22.70;20.80;;;;;;;;;;5244739;28;20028;-82
2022/10/14 00:24:42;;;;;;;20.27;18.27;;;;;;;;;;5242697;28;20273;-81
2022/10/14 00:27:13;;;;;;;28.33;21.77;;;;;;;;;;5263146;28;20103;-80
2022/10/14 00:29:43;;;;;;;23.00;20.65;;;;;;;;;;5261931;28;20324;-82
2022/10/14 00:32:13;;;;;;;27.73;22.58;;;;;;;;;;5261981;28;20020;-82
2022/10/14 00:34:43;;;;;;;22.42;20.40;;;;;;;;;;5260858;28;20020;-82
2022/10/14 00:37:14;;;;;;;22.67;20.45;;;;;;;;;;5260989;28;20048;-83
2022/10/14 00:39:44;;;;;;;23.08;20.92;;;;;;;;;;5260724;28;20016;-83
2022/10/14 00:42:14;;;;;;;21.42;19.67;;;;;;;;;;5242485;28;20354;-83
2022/10/14 00:44:44;;;;;;;21.42;19.42;;;;;;;;;;5241237;28;20012;-83
2022/10/14 00:47:15;;;;;;;24.77;22.37;;;;;;;;;;5243264;28;20040;-83
2022/10/14 00:49:45;;;;;;;22.48;20.67;;;;;;;;;;5243692;28;20274;-82
2022/10/14 00:52:17;;;;;;;25.42;23.05;;;;;;;;;;5261366;28;20024;-83
2022/10/14 00:54:49;;;;;;;23.75;21.23;;;;;;;;;;5242268;28;20031;-83
2022/10/14 00:57:20;;;;;;;25.75;23.73;;;;;;;;;;5261362;28;20044;-82
2022/10/14 00:59:53;;;;;;;22.75;20.60;;;;;;;;;;5261198;28;20021;-82
2022/10/14 01:02:23;;;;;;;24.50;21.60;;;;;;;;;;5261484;28;20501;-80
2022/10/14 01:04:53;;;;;;;22.05;19.75;;;;;;;;;;5260169;28;20017;-80
2022/10/14 01:07:33;;;;;;;22.15;20.17;;;;;;;;;;5260870;28;20295;-83
2022/10/14 01:10:12;;;;;;;24.25;22.10;;;;;;;;;;5241546;28;20060;-81
2022/10/14 01:12:52;;;;;;;24.95;21.80;;;;;;;;;;5242306;28;20032;-83
2022/10/14 01:15:22;;;;;;;25.35;22.10;;;;;;;;;;5259336;28;20079;-83
2022/10/14 01:17:52;;;;;;;22.20;19.73;;;;;;;;;;5260591;28;20032;-83
2022/10/14 01:20:25;;;;;;;23.03;21.03;;;;;;;;;;5260732;28;20286;-83
2022/10/14 01:22:55;;;;;;;24.70;22.15;;;;;;;;;;5242063;28;20332;-83
2022/10/14 01:25:33;;;;;;;21.37;19.37;;;;;;;;;;5242290;28;20013;-83
2022/10/14 01:28:12;;;;;;;22.45;20.50;;;;;;;;;;5241527;28;20277;-83
2022/10/14 01:30:44;;;;;;;23.98;21.42;;;;;;;;;;5240885;28;20016;-81
2022/10/14 01:33:19;;;;;;;26.02;23.08;;;;;;;;;;5258392;28;20069;-82
2022/10/14 01:36:05;;;;;;;21.05;19.05;;;;;;;;;;5241148;28;20027;-82
2022/10/14 01:38:41;;;;;;;21.15;19.27;;;;;;;;;;5259591;28;20020;-83
2022/10/14 01:41:12;;;;;;;22.27;20.02;;;;;;;;;;5259293;28;20023;-83
2022/10/14 01:43:44;;;;;;;20.02;17.92;;;;;;;;;;5240481;28;20088;-83
2022/10/14 01:46:15;;;;;;;21.02;18.83;;;;;;;;;;5258749;28;20025;-83
2022/10/14 01:48:48;;;;;;;22.60;20.40;;;;;;;;;;5241296;28;20146;-82
2022/10/14 01:51:21;;;;;;;22.48;20.15;;;;;;;;;;5259689;28;20016;-83
2022/10/14 01:53:57;;;;;;;20.33;18.73;;;;;;;;;;5258379;28;20024;-81
2022/10/14 01:56:29;;;;;;;19.17;17.35;;;;;;;;;;5241775;28;20020;-81
2022/10/14 01:59:01;;;;;;;19.83;18.30;;;;;;;;;;5259897;28;20113;-81
2022/10/14 02:01:33;;;;;;;19.73;18.02;;;;;;;;;;5259256;28;20031;-82
2022/10/14 02:04:12;;;;;;;20.25;18.23;;;;;;;;;;5259718;28;20020;-83
2022/10/14 02:06:47;;;;;;;20.73;18.83;;;;;;;;;;5259691;28;20035;-83
2022/10/14 02:09:18;;;;;;;20.45;18.50;;;;;;;;;;5258694;28;20023;-83
2022/10/14 02:12:11;;;;;;;19.23;17.50;;;;;;;;;;5259094;28;20103;-82
2022/10/14 02:14:50;;;;;;;21.52;19.63;;;;;;;;;;5219134;28;20263;-82
2022/10/14 02:17:37;;;;;;;20.83;19.17;;;;;;;;;;5239909;28;20543;-82
2022/10/14 02:20:16;;;;;;;23.13;20.70;;;;;;;;;;5257597;28;20025;-81
2022/10/14 02:22:53;;;;;;;19.25;17.67;;;;;;;;;;5239612;28;20390;-81
2022/10/14 02:25:26;;;;;;;20.40;18.63;;;;;;;;;;5257080;28;20035;-82
2022/10/14 02:27:57;;;;;;;19.77;18.00;;;;;;;;;;5257677;28;20024;-82
2022/10/14 02:30:28;;;;;;;18.10;16.55;;;;;;;;;;5259269;28;20474;-81
2022/10/14 02:32:59;;;;;;;17.92;16.52;;;;;;;;;;5240461;28;20027;-82
2022/10/14 02:35:30;;;;;;;16.85;15.50;;;;;;;;;;5239411;28;20017;-81
2022/10/14 02:38:01;;;;;;;17.88;16.27;;;;;;;;;;5256987;28;20051;-81
2022/10/14 02:40:36;;;;;;;17.50;15.90;;;;;;;;;;5240725;28;20017;-82
2022/10/14 02:43:09;;;;;;;17.80;15.95;;;;;;;;;;5257649;28;20021;-82
2022/10/14 02:45:40;;;;;;;20.77;18.88;;;;;;;;;;5257427;28;20036;-82
2022/10/14 02:48:11;;;;;;;18.10;16.67;;;;;;;;;;5257853;28;20017;-81
2022/10/14 02:50:41;;;;;;;17.85;16.17;;;;;;;;;;5257412;28;20031;-83
2022/10/14 02:53:13;;;;;;;16.20;14.77;;;;;;;;;;5282657;22;20043;-65
2022/10/14 02:55:43;;;;;;;19.50;17.52;;;;;;;;;;5248788;28;20012;-66
2022/10/14 02:58:13;;;;;;;18.77;16.98;;;;;;;;;;5249239;28;20399;-66
2022/10/14 03:00:44;;;;;;;15.60;14.45;;;;;;;;;;5249758;28;20108;-66
2022/10/14 03:03:14;;;;;;;17.17;15.75;;;;;;;;;;5228009;28;20020;-66
2022/10/14 03:05:44;;;;;;;18.40;16.88;;;;;;;;;;5228083;28;20044;-66
2022/10/14 03:08:15;;;;;;;18.58;14.80;;;;;;;;;;5228143;28;20016;-66
2022/10/14 03:10:46;;;;;;;16.55;15.02;;;;;;;;;;5227926;28;20111;-66
2022/10/14 03:13:17;;;;;;;17.40;15.27;;;;;;;;;;5228590;28;20063;-66
2022/10/14 03:15:49;;;;;;;18.17;16.33;;;;;;;;;;5228274;28;20051;-66
2022/10/14 03:18:20;;;;;;;16.80;15.35;;;;;;;;;;5228086;28;20032;-66
2022/10/14 03:20:50;;;;;;;14.07;12.70;;;;;;;;;;5227924;28;20107;-66
2022/10/14 03:23:21;;;;;;;15.40;13.27;;;;;;;;;;5227835;28;20409;-66
2022/10/14 03:25:51;;;;;;;13.57;12.55;;;;;;;;;;5228136;28;20013;-66
2022/10/14 03:28:21;;;;;;;17.38;15.50;;;;;;;;;;5228047;28;20403;-66
2022/10/14 03:30:51;;;;;;;13.85;12.75;;;;;;;;;;5228049;28;20017;-66
2022/10/14 03:33:22;;;;;;;16.10;14.50;;;;;;;;;;5228070;28;20097;-67
2022/10/14 03:35:52;;;;;;;13.43;12.50;;;;;;;;;;5245998;28;20013;-66
2022/10/14 03:38:22;;;;;;;17.33;14.77;;;;;;;;;;5228012;28;20024;-66
2022/10/14 03:40:53;;;;;;;14.40;13.27;;;;;;;;;;5227781;28;20115;-66
2022/10/14 03:43:23;;;;;;;14.10;12.65;;;;;;;;;;5227537;28;20013;-67
2022/10/14 03:45:54;;;;;;;13.35;12.20;;;;;;;;;;5227787;28;20523;-66
2022/10/14 03:48:24;;;;;;;14.50;13.20;;;;;;;;;;5227647;28;20017;-66
2022/10/14 03:50:55;;;;;;;12.98;12.05;;;;;;;;;;5249506;28;20039;-66
2022/10/14 03:53:25;;;;;;;12.77;11.68;;;;;;;;;;5231311;28;20557;-66
2022/10/14 03:55:55;;;;;;;15.30;10.45;;;;;;;;;;5249735;28;20035;-66
2022/10/14 03:58:25;;;;;;;14.13;12.98;;;;;;;;;;5231562;28;20074;-66
2022/10/14 04:00:56;;;;;;;14.63;13.43;;;;;;;;;;5231390;28;20035;-66
2022/10/14 04:03:26;;;;;;;14.48;13.10;;;;;;;;;;5249104;28;20392;-66
2022/10/14 04:05:56;;;;;;;15.95;13.38;;;;;;;;;;5215062;28;20044;-66
2022/10/14 04:08:27;;;;;;;13.52;12.25;;;;;;;;;;5231380;28;20036;-66
2022/10/14 04:10:57;;;;;;;14.55;13.25;;;;;;;;;;5231420;28;20021;-65
2022/10/14 04:13:27;;;;;;;12.23;11.07;;;;;;;;;;5231374;28;20434;-66
2022/10/14 04:16:08;;;;;;;14.18;13.07;;;;;;;;;;5231301;28;20047;-66
2022/10/14 04:18:38;;;;;;;12.68;11.68;;;;;;;;;;5231539;28;20021;-65
2022/10/14 04:21:10;;;;;;;12.38;11.13;;;;;;;;;;5230994;28;20028;-65
2022/10/14 04:23:41;;;;;;;12.30;11.27;;;;;;;;;;5230945;28;20074;-65
2022/10/14 04:26:11;;;;;;;12.70;11.52;;;;;;;;;;5231005;28;20411;-65
2022/10/14 04:28:41;;;;;;;11.25;10.18;;;;;;;;;;5249004;28;20465;-65
2022/10/14 04:31:12;;;;;;;10.98;9.93;;;;;;;;;;5230725;28;20111;-66
2022/10/14 04:33:42;;;;;;;13.25;12.02;;;;;;;;;;5230666;28;20119;-65
2022/10/14 04:36:13;;;;;;;11.02;10.02;;;;;;;;;;5230914;28;20020;-66
2022/10/14 04:38:43;;;;;;;12.05;11.13;;;;;;;;;;5248823;28;20503;-66
2022/10/14 04:41:13;;;;;;;12.30;11.32;;;;;;;;;;5248975;28;20382;-66
2022/10/14 04:43:43;;;;;;;13.48;12.25;;;;;;;;;;5230465;28;20023;-66
2022/10/14 04:46:14;;;;;;;11.77;10.68;;;;;;;;;;5230907;28;20067;-65
2022/10/14 04:48:46;;;;;;;12.15;11.05;;;;;;;;;;5248438;28;20069;-66
2022/10/14 04:51:16;;;;;;;11.52;10.52;;;;;;;;;;5230648;28;20020;-66
2022/10/14 04:53:46;;;;;;;13.25;12.15;;;;;;;;;;5229946;28;20032;-66
2022/10/14 04:56:17;;;;;;;12.15;11.23;;;;;;;;;;5230728;28;20024;-66
2022/10/14 04:58:47;;;;;;;11.88;11.07;;;;;;;;;;5248475;28;20476;-66
2022/10/14 05:01:17;;;;;;;11.90;11.00;;;;;;;;;;5229374;28;20021;-66
2022/10/14 05:03:48;;;;;;;11.07;10.18;;;;;;;;;;5230224;28;20016;-65
2022/10/14 05:06:18;;;;;;;12.60;10.77;;;;;;;;;;5230088;28;20020;-64
2022/10/14 05:08:48;;;;;;;11.52;10.38;;;;;;;;;;5230315;28;20021;-66
2022/10/14 05:11:19;;;;;;;13.63;11.15;;;;;;;;;;5230346;28;20119;-66
2022/10/14 05:13:49;;;;;;;11.85;10.85;;;;;;;;;;5230254;28;20388;-66
2022/10/14 05:16:19;;;;;;;11.20;10.20;;;;;;;;;;5229959;28;20503;-66
2022/10/14 05:18:49;;;;;;;10.82;9.93;;;;;;;;;;5248059;28;20077;-66
2022/10/14 05:21:20;;;;;;;9.90;9.10;;;;;;;;;;5229937;28;20028;-66
2022/10/14 05:23:50;;;;;;;11.25;10.15;;;;;;;;;;5229686;28;20486;-66
2022/10/14 05:26:20;;;;;;;11.73;10.70;;;;;;;;;;5229718;28;20024;-65
2022/10/14 05:28:51;;;;;;;8.63;8.02;;;;;;;;;;5229717;28;20012;-67
2022/10/14 05:31:21;;;;;;;9.85;9.02;;;;;;;;;;5233726;28;20040;-65
2022/10/14 05:33:52;;;;;;;11.75;10.63;;;;;;;;;;5269105;28;20024;-67
2022/10/14 05:36:22;;;;;;;10.95;9.82;;;;;;;;;;5289521;28;20441;-66
2022/10/14 05:38:57;;;;;;;11.35;10.38;;;;;;;;;;5289019;28;20062;-65
2022/10/14 05:41:27;;;;;;;10.45;9.55;;;;;;;;;;5270842;28;20052;-66
2022/10/14 05:43:57;;;;;;;12.88;11.75;;;;;;;;;;5269627;28;20024;-65
2022/10/14 05:46:28;;;;;;;10.38;9.57;;;;;;;;;;5241401;28;20407;-66
2022/10/14 05:49:00;;;;;;;10.95;10.15;;;;;;;;;;5228920;28;20081;-65
2022/10/14 05:51:31;;;;;;;11.30;10.20;;;;;;;;;;5229378;28;20466;-65
2022/10/14 05:54:02;;;;;;;11.23;10.25;;;;;;;;;;5228564;28;20056;-65
2022/10/14 05:56:32;;;;;;;9.93;9.13;;;;;;;;;;5229126;28;20024;-66
2022/10/14 05:59:02;;;;;;;11.77;10.68;;;;;;;;;;5246820;28;20381;-65
2022/10/14 06:01:35;;;;;;;12.05;11.15;;;;;;;;;;5233973;28;20023;-65
2022/10/14 06:04:05;;;;;;;11.15;10.32;;;;;;;;;;5249493;28;20076;-66
2022/10/14 06:06:36;;;;;;;14.57;9.68;;;;;;;;;;5249633;28;20111;-66
2022/10/14 06:09:06;;;;;;;10.90;10.05;;;;;;;;;;5249855;28;20135;-64
2022/10/14 06:11:37;;;;;;;11.65;9.43;;;;;;;;;;5250008;28;20020;-65
2022/10/14 06:14:07;;;;;;;11.95;11.05;;;;;;;;;;5247180;28;20024;-63
2022/10/14 06:16:38;;;;;;;10.73;9.73;;;;;;;;;;5249385;28;20062;-64
2022/10/14 06:19:08;;;;;;;11.38;10.32;;;;;;;;;;5267817;28;20535;-63
2022/10/14 06:21:38;;;;;;;11.02;10.05;;;;;;;;;;5266519;28;20023;-65
2022/10/14 06:24:08;;;;;;;11.88;10.70;;;;;;;;;;5266163;28;20494;-64
2022/10/14 06:26:39;;;;;;;11.57;10.40;;;;;;;;;;5267085;28;20012;-64
2022/10/14 06:29:09;;;;;;;13.02;12.00;;;;;;;;;;5263794;28;20023;-65
2022/10/14 06:31:40;;;;;;;10.15;9.25;;;;;;;;;;5247032;28;20103;-63
2022/10/14 06:34:10;;;;;;;10.75;9.70;;;;;;;;;;5267419;28;20204;-63
2022/10/14 06:36:40;;;;;;;9.63;8.95;;;;;;;;;;5265889;28;20074;-64
2022/10/14 06:39:11;;;;;;;12.45;10.88;;;;;;;;;;5266472;28;20026;-64
2022/10/14 06:41:41;;;;;;;12.43;11.23;;;;;;;;;;5249058;28;20076;-64
2022/10/14 06:44:14;;;;;;;11.52;10.35;;;;;;;;;;5232563;28;20052;-64
2022/10/14 06:46:44;;;;;;;11.05;10.15;;;;;;;;;;5266050;28;20023;-63
2022/10/14 06:49:15;;;;;;;11.20;10.27;;;;;;;;;;5249040;28;20032;-64
2022/10/14 06:51:45;;;;;;;10.95;10.00;;;;;;;;;;5265917;28;20016;-64
2022/10/14 06:54:15;;;;;;;12.07;11.10;;;;;;;;;;5265689;28;20127;-64
2022/10/14 06:56:46;;;;;;;12.43;11.30;;;;;;;;;;5265687;28;20020;-64
2022/10/14 06:59:16;;;;;;;11.93;10.70;;;;;;;;;;5267371;28;20020;-62
2022/10/14 07:01:46;;;;;;;11.60;9.50;;;;;;;;;;5266644;28;20012;-63
2022/10/14 07:04:16;;;;;;;9.30;8.43;;;;;;;;;;5265307;28;20024;-65
2022/10/14 07:06:47;;;;;;;11.32;10.05;;;;;;;;;;5248952;28;20395;-64
2022/10/14 07:09:17;;;;;;;11.60;10.70;;;;;;;;;;5265718;28;20027;-64
2022/10/14 07:11:47;;;;;;;11.07;10.07;;;;;;;;;;5266050;28;20525;-64
2022/10/14 07:14:18;;;;;;;11.50;10.40;;;;;;;;;;5266656;28;20451;-66
2022/10/14 07:16:48;;;;;;;12.95;11.68;;;;;;;;;;5265560;28;20111;-64
2022/10/14 07:19:18;;;;;;;11.82;10.65;;;;;;;;;;5265472;28;20102;-63
2022/10/14 07:21:49;;;;;;;10.82;9.93;;;;;;;;;;5265787;28;20017;-64
2022/10/14 07:24:19;;;;;;;12.40;11.38;;;;;;;;;;5250085;28;20049;-66
2022/10/14 07:26:49;;;;;;;12.57;11.50;;;;;;;;;;5269699;28;20381;-65
2022/10/14 07:29:20;;;;;;;10.20;9.07;;;;;;;;;;5269925;28;20076;-64
2022/10/14 07:31:50;;;;;;;19.25;11.63;;;;;;;;;;5270276;28;20016;-65
2022/10/14 07:34:21;;;;;;;10.85;10.02;;;;;;;;;;5269390;28;20024;-65
2022/10/14 07:36:51;;;;;;;13.40;12.10;;;;;;;;;;5253040;28;20096;-66
2022/10/14 07:39:22;;;;;;;12.70;11.57;;;;;;;;;;5270013;28;20506;-65
2022/10/14 07:41:52;;;;;;;10.90;9.90;;;;;;;;;;5269813;28;20024;-67
2022/10/14 07:44:23;;;;;;;11.05;9.93;;;;;;;;;;5269684;28;20024;-65
2022/10/14 07:46:53;;;;;;;12.30;11.00;;;;;;;;;;5269431;28;20012;-66
2022/10/14 07:49:24;;;;;;;12.05;10.93;;;;;;;;;;5269445;28;20012;-66
2022/10/14 07:51:54;;;;;;;11.77;10.82;;;;;;;;;;5269412;28;20020;-66
2022/10/14 07:54:25;;;;;;;10.45;9.50;;;;;;;;;;5268887;28;20032;-65
2022/10/14 07:56:56;;;;;;;11.00;10.10;;;;;;;;;;5252150;28;20396;-66
2022/10/14 07:59:27;;;;;;;11.02;10.20;;;;;;;;;;5269217;28;20472;-66
2022/10/14 08:01:57;;;;;;;11.52;10.45;;;;;;;;;;5269076;28;20023;-65
2022/10/14 08:04:28;;;;;;;11.57;10.38;;;;;;;;;;5268769;28;20015;-66
2022/10/14 08:06:58;;;;;;;11.95;10.73;;;;;;;;;;5269092;28;20027;-66
2022/10/14 08:09:29;;;;;;;14.20;10.27;;;;;;;;;;5269167;28;20020;-66
2022/10/14 08:11:59;;;;;;;12.77;10.80;;;;;;;;;;5268785;28;20111;-65
2022/10/14 08:14:29;;;;;;;10.63;9.52;;;;;;;;;;5251979;28;20012;-64
2022/10/14 08:17:00;;;;;;;12.05;9.20;;;;;;;;;;5269047;28;20023;-66
2022/10/14 08:19:30;;;;;;;10.10;9.02;;;;;;;;;;5251839;28;20039;-63
2022/10/14 08:22:00;;;;;;;10.50;9.70;;;;;;;;;;5270304;28;20024;-65
2022/10/14 08:24:31;;;;;;;9.90;9.05;;;;;;;;;;5268640;28;20044;-64
2022/10/14 08:27:01;;;;;;;11.57;9.80;;;;;;;;;;5269071;28;20499;-66
2022/10/14 08:29:31;;;;;;;10.70;9.18;;;;;;;;;;5270007;28;20044;-65
2022/10/14 08:32:02;;;;;;;8.85;8.25;;;;;;;;;;5253414;28;20016;-66
2022/10/14 08:34:32;;;;;;;10.27;9.38;;;;;;;;;;5269719;28;20035;-66
2022/10/14 08:37:02;;;;;;;10.15;9.13;;;;;;;;;;5250653;28;20016;-64
2022/10/14 08:39:33;;;;;;;8.73;8.07;;;;;;;;;;5268258;28;20046;-65
2022/10/14 08:42:12;;;;;;;9.07;8.25;;;;;;;;;;5267964;28;20237;-65
2022/10/14 08:44:52;;;;;;;8.90;8.20;;;;;;;;;;5251473;28;20020;-65
2022/10/14 08:47:25;;;;;;;9.57;8.57;;;;;;;;;;5251312;28;20019;-65
2022/10/14 08:50:05;;;;;;;10.77;9.77;;;;;;;;;;5251363;28;20067;-65
2022/10/14 08:52:40;;;;;;;9.88;8.93;;;;;;;;;;5250949;28;20114;-66
2022/10/14 08:55:18;;;;;;;10.02;9.20;;;;;;;;;;5230855;22;20068;-67
2022/10/14 08:57:50;;;;;;;9.35;8.57;;;;;;;;;;5209691;28;20021;-66
2022/10/14 09:00:21;;;;;;;11.40;10.38;;;;;;;;;;5209300;28;20573;-67
2022/10/14 09:02:51;;;;;;;9.07;8.18;;;;;;;;;;5210001;28;20100;-67
2022/10/14 09:05:23;;;;;;;9.88;9.00;;;;;;;;;;5227521;28;20473;-67
2022/10/14 09:07:55;;;;;;;8.70;7.85;;;;;;;;;;5209428;28;20404;-68
2022/10/14 09:10:30;;;;;;;8.95;8.25;;;;;;;;;;5209107;28;20028;-68
2022/10/14 09:13:17;;;;;;;9.32;8.45;;;;;;;;;;5227626;28;20036;-66
2022/10/14 09:15:52;;;;;;;7.95;7.43;;;;;;;;;;5209472;28;20021;-69
2022/10/14 09:18:31;;;;;;;8.38;7.65;;;;;;;;;;5209267;28;20033;-69
2022/10/14 09:21:10;;;;;;;9.38;8.65;;;;;;;;;;5226872;28;20029;-68
2022/10/14 09:23:40;;;;;;;8.10;7.40;;;;;;;;;;5209106;28;20460;-66
2022/10/14 09:26:17;;;;;;;8.00;7.40;;;;;;;;;;5209261;28;20104;-67
2022/10/14 09:28:49;;;;;;;9.02;8.40;;;;;;;;;;5208954;28;20091;-68
2022/10/14 09:31:19;;;;;;;8.85;7.18;;;;;;;;;;5209583;28;20028;-68
2022/10/14 09:33:49;;;;;;;8.25;7.65;;;;;;;;;;5208813;28;20016;-68
2022/10/14 09:36:20;;;;;;;8.77;8.02;;;;;;;;;;5209180;28;20021;-68
2022/10/14 09:38:52;;;;;;;7.65;7.07;;;;;;;;;;5226873;28;20166;-68
2022/10/14 09:41:25;;;;;;;8.70;7.90;;;;;;;;;;5208979;28;20021;-69
2022/10/14 09:44:17;;;;;;;8.60;7.80;;;;;;;;;;5208535;28;20028;-68
2022/10/14 09:46:49;;;;;;;8.88;7.90;;;;;;;;;;5208212;28;20115;-69
2022/10/14 09:49:40;;;;;;;7.90;7.40;;;;;;;;;;5208941;28;20235;-68
2022/10/14 09:52:21;;;;;;;8.20;7.60;;;;;;;;;;5208171;28;20025;-69
2022/10/14 09:54:56;;;;;;;8.10;7.60;;;;;;;;;;5208412;28;20033;-68
2022/10/14 09:57:26;;;;;;;8.13;7.53;;;;;;;;;;5226666;28;20024;-69
2022/10/14 10:00:02;;;;;;;7.55;6.80;;;;;;;;;;5226378;28;20380;-68
2022/10/14 10:02:41;;;;;;;9.23;8.45;;;;;;;;;;5208982;28;20544;-68
2022/10/14 10:05:12;;;;;;;7.30;6.80;;;;;;;;;;5208305;28;20067;-69
2022/10/14 10:07:42;;;;;;;7.07;6.55;;;;;;;;;;5208538;28;20040;-68
2022/10/14 10:10:18;;;;;;;7.95;7.45;;;;;;;;;;5207905;28;20052;-69
2022/10/14 10:12:48;;;;;;;7.35;6.75;;;;;;;;;;5208517;28;20024;-68
2022/10/14 10:15:20;;;;;;;6.93;6.35;;;;;;;;;;5226250;28;20480;-68
2022/10/14 10:17:50;;;;;;;7.55;6.85;;;;;;;;;;5208350;28;20099;-71
2022/10/14 10:20:35;;;;;;;7.78;7.18;;;;;;;;;;5208058;28;20112;-69
2022/10/14 10:23:25;;;;;;;7.18;6.63;;;;;;;;;;5208367;28;20515;-69
2022/10/14 10:26:12;;;;;;;6.75;6.15;;;;;;;;;;5208051;28;20023;-71
2022/10/14 10:28:44;;;;;;;5.82;5.43;;;;;;;;;;5208185;28;20034;-70
2022/10/14 10:31:28;;;;;;;7.07;6.47;;;;;;;;;;5207612;28;20021;-69
2022/10/14 10:34:00;;;;;;;6.32;5.75;;;;;;;;;;5207592;28;20056;-68
2022/10/14 10:36:34;;;;;;;6.18;5.82;;;;;;;;;;5207855;28;20247;-71
2022/10/14 10:39:10;;;;;;;5.38;5.07;;;;;;;;;;5207605;28;20029;-69
2022/10/14 10:41:59;;;;;;;7.05;5.95;;;;;;;;;;5207853;28;20048;-69
2022/10/14 10:44:32;;;;;;;5.03;4.72;;;;;;;;;;5207095;28;20025;-70
2022/10/14 10:47:04;;;;;;;6.63;6.03;;;;;;;;;;5225657;28;20499;-69
2022/10/14 10:49:40;;;;;;;7.80;5.45;;;;;;;;;;5207449;28;20080;-71
2022/10/14 10:52:27;;;;;;;10.75;5.50;;;;;;;;;;5207355;28;20098;-70
2022/10/14 10:55:10;;;;;;;6.47;5.88;;;;;;;;;;5206950;28;20045;-68
2022/10/14 10:57:55;;;;;;;5.40;5.00;;;;;;;;;;5207516;28;20195;-70
2022/10/14 11:00:28;;;;;;;5.55;5.05;;;;;;;;;;5206278;28;20032;-70
2022/10/14 11:03:25;;;;;;;4.90;4.53;;;;;;;;;;5207360;28;20044;-69
2022/10/14 11:06:01;;;;;;;5.47;5.07;;;;;;;;;;5207435;28;20073;-67
2022/10/14 11:14:38;;;;;;;4.85;4.55;;;;;;;;;;5225174;28;20029;-66
2022/10/14 11:17:19;;;;;;;4.78;4.43;;;;;;;;;;5207117;28;20025;-65
2022/10/14 11:19:52;;;;;;;11.95;5.68;;;;;;;;;;5225086;28;20017;-66
2022/10/14 11:22:32;;;;;;;4.63;4.32;;;;;;;;;;5207248;28;20436;-67
2022/10/14 11:25:22;;;;;;;3.75;3.55;;;;;;;;;;5206952;28;20103;-68
2022/10/14 11:28:11;;;;;;;4.30;4.10;;;;;;;;;;5206313;28;20527;-67
2022/10/14 11:30:52;;;;;;;4.38;4.07;;;;;;;;;;5206888;28;20448;-66
2022/10/14 11:33:28;;;;;;;4.30;4.10;;;;;;;;;;5206550;28;20025;-68
2022/10/14 11:36:04;;;;;;;4.55;4.15;;;;;;;;;;5224768;28;20029;-68
2022/10/14 11:38:35;;;;;;;4.32;4.00;;;;;;;;;;5206841;28;20083;-67
2022/10/14 11:41:17;;;;;;;4.40;3.97;;;;;;;;;;5206651;28;20048;-67
2022/10/14 11:43:56;;;;;;;5.10;4.78;;;;;;;;;;5206574;28;20113;-67
2022/10/14 11:46:30;;;;;;;3.53;3.33;;;;;;;;;;5225265;28;20013;-70
2022/10/14 11:49:04;;;;;;;3.92;3.72;;;;;;;;;;5206710;28;20044;-67
2022/10/14 11:51:34;;;;;;;4.28;3.97;;;;;;;;;;5206554;28;20422;-67
2022/10/14 11:54:11;;;;;;;3.10;2.95;;;;;;;;;;5202216;28;20151;-67
2022/10/14 11:56:45;;;;;;;2.85;2.65;;;;;;;;;;5205453;28;20028;-68
2022/10/14 11:59:22;;;;;;;2.78;2.67;;;;;;;;;;5206106;28;20469;-68
2022/10/14 12:01:55;;;;;;;3.30;3.20;;;;;;;;;;5206507;28;20032;-68
2022/10/14 12:04:29;;;;;;;3.47;3.22;;;;;;;;;;5206128;28;20478;-68
2022/10/14 12:07:16;;;;;;;3.83;3.53;;;;;;;;;;5206493;28;20025;-68
2022/10/14 12:09:50;;;;;;;4.28;4.03;;;;;;;;;;5206929;28;20025;-68
2022/10/14 12:12:23;;;;;;;3.97;3.67;;;;;;;;;;5228636;28;20112;-68
2022/10/14 12:15:03;;;;;;;4.18;3.78;;;;;;;;;;5227546;28;20021;-68
2022/10/14 12:18:09;;;;;;;4.22;3.92;;;;;;;;;;5210503;28;20031;-68
2022/10/14 12:20:46;;;;;;;5.25;4.95;;;;;;;;;;5168025;28;20029;-70
2022/10/14 12:23:22;;;;;;;5.80;4.18;;;;;;;;;;5207520;28;20110;-68
2022/10/14 12:26:09;;;;;;;5.13;4.82;;;;;;;;;;5227872;28;20045;-68
2022/10/14 12:28:40;;;;;;;5.85;5.35;;;;;;;;;;5209964;28;20025;-68
2022/10/14 12:31:28;;;;;;;5.93;5.53;;;;;;;;;;5207845;28;20512;-68
2022/10/14 12:34:12;;;;;;;6.53;6.03;;;;;;;;;;5209320;28;20051;-68
2022/10/14 12:36:44;;;;;;;7.50;6.95;;;;;;;;;;5210135;28;20027;-68
2022/10/14 12:39:17;;;;;;;9.05;5.22;;;;;;;;;;5209908;28;20028;-68
2022/10/14 12:41:47;;;;;;;6.80;5.43;;;;;;;;;;5209952;28;20497;-68
2022/10/14 12:44:19;;;;;;;7.15;6.57;;;;;;;;;;5227570;28;20027;-68
2022/10/14 12:46:50;;;;;;;8.25;7.53;;;;;;;;;;5227828;28;20535;-69
2022/10/14 12:49:29;;;;;;;7.47;6.85;;;;;;;;;;5209748;28;20021;-69
2022/10/14 12:52:00;;;;;;;7.78;7.13;;;;;;;;;;5209821;28;20017;-68
2022/10/14 12:54:31;;;;;;;7.47;6.88;;;;;;;;;;5209363;28;20099;-71
2022/10/14 12:57:18;;;;;;;8.90;6.82;;;;;;;;;;5210344;28;20035;-69
2022/10/14 12:59:50;;;;;;;7.13;6.55;;;;;;;;;;5227658;28;21928;-69
2022/10/14 13:02:23;;;;;;;6.85;6.35;;;;;;;;;;5209857;28;20075;-68
2022/10/14 13:04:54;;;;;;;7.28;6.68;;;;;;;;;;5209043;28;20032;-68
2022/10/14 13:07:24;;;;;;;6.72;6.18;;;;;;;;;;5209408;28;20397;-69
2022/10/14 13:09:59;;;;;;;9.25;8.35;;;;;;;;;;5227683;28;20054;-69
2022/10/14 13:12:30;;;;;;;7.47;6.97;;;;;;;;;;5209284;28;20021;-69
2022/10/14 13:15:01;;;;;;;7.40;6.75;;;;;;;;;;5227184;28;20017;-69
2022/10/14 13:17:41;;;;;;;8.57;7.78;;;;;;;;;;5209353;28;20020;-69
2022/10/14 13:20:30;;;;;;;7.95;7.43;;;;;;;;;;5226647;28;20025;-68
2022/10/14 13:23:39;;;;;;;8.95;8.27;;;;;;;;;;5208520;28;20029;-68
2022/10/14 13:26:20;;;;;;;7.22;6.82;;;;;;;;;;5167038;28;20068;-68
2022/10/14 13:29:09;;;;;;;6.55;6.05;;;;;;;;;;5167011;28;20061;-68
2022/10/14 13:31:56;;;;;;;9.45;8.25;;;;;;;;;;5197904;28;20025;-69
2022/10/14 13:34:50;;;;;;;6.88;6.28;;;;;;;;;;5208721;28;20523;-68
2022/10/14 13:37:30;;;;;;;7.65;7.07;;;;;;;;;;5208649;28;20016;-70
2022/10/14 13:40:15;;;;;;;7.65;7.05;;;;;;;;;;5208736;28;20044;-70
2022/10/14 13:42:54;;;;;;;7.43;6.78;;;;;;;;;;5208910;28;20439;-69
2022/10/14 13:45:30;;;;;;;6.85;6.38;;;;;;;;;;5208215;28;20017;-70
2022/10/14 13:48:01;;;;;;;14.23;12.82;;;;;;;;;;5208503;28;20013;-69
2022/10/14 13:50:33;;;;;;;7.68;7.07;;;;;;;;;;5207855;28;20024;-69
2022/10/14 13:53:05;;;;;;;9.15;8.45;;;;;;;;;;5208801;28;20017;-70
2022/10/14 13:55:43;;;;;;;7.22;6.72;;;;;;;;;;5208276;28;20029;-70
2022/10/14 13:58:14;;;;;;;9.27;8.40;;;;;;;;;;5208278;28;20086;-69
2022/10/14 14:00:59;;;;;;;9.90;7.65;;;;;;;;;;5208386;28;20017;-69
2022/10/14 14:03:36;;;;;;;7.63;7.13;;;;;;;;;;5205347;28;20020;-70
2022/10/14 14:06:14;;;;;;;7.75;6.95;;;;;;;;;;5207818;28;20013;-69
2022/10/14 14:08:47;;;;;;;7.50;6.90;;;;;;;;;;5207754;28;20182;-69
2022/10/14 14:11:20;;;;;;;9.23;8.32;;;;;;;;;;5208095;28;20123;-69
2022/10/14 14:13:55;;;;;;;9.30;8.50;;;;;;;;;;5207668;28;20412;-71
2022/10/14 14:16:34;;;;;;;8.20;7.57;;;;;;;;;;5207848;28;20036;-69
2022/10/14 14:19:04;;;;;;;9.88;8.43;;;;;;;;;;5207797;28;20051;-69
2022/10/14 14:21:35;;;;;;;10.20;9.32;;;;;;;;;;5225651;28;20021;-69
2022/10/14 14:24:09;;;;;;;9.30;8.68;;;;;;;;;;5207248;28;20017;-70
2022/10/14 14:26:40;;;;;;;10.90;10.10;;;;;;;;;;5201720;28;20044;-69
2022/10/14 14:29:21;;;;;;;11.45;8.75;;;;;;;;;;5207268;28;20489;-69
2022/10/14 14:31:51;;;;;;;10.40;9.32;;;;;;;;;;5207475;28;20028;-69
2022/10/14 14:34:25;;;;;;;10.30;9.45;;;;;;;;;;5206194;28;20469;-69
2022/10/14 14:36:58;;;;;;;10.80;9.88;;;;;;;;;;5225454;28;20021;-69
2022/10/14 14:39:28;;;;;;;12.43;11.23;;;;;;;;;;5205305;28;20119;-69
2022/10/14 14:41:59;;;;;;;10.88;9.50;;;;;;;;;;5218609;28;20111;-69
2022/10/14 14:44:31;;;;;;;9.93;9.00;;;;;;;;;;5205999;28;20492;-70
2022/10/14 14:47:02;;;;;;;12.93;11.82;;;;;;;;;;5206706;28;20013;-70
2022/10/14 14:49:37;;;;;;;10.88;10.18;;;;;;;;;;5206346;28;20124;-70
2022/10/14 14:52:10;;;;;;;10.80;9.88;;;;;;;;;;5206160;28;20017;-70
2022/10/14 14:54:44;;;;;;;11.70;10.65;;;;;;;;;;5220949;22;20036;-63
2022/10/14 14:57:18;;;;;;;10.93;10.00;;;;;;;;;;5227285;28;20101;-63
2022/10/14 14:59:49;;;;;;;14.00;12.70;;;;;;;;;;5224599;28;20021;-64
2022/10/14 15:02:20;;;;;;;12.18;11.25;;;;;;;;;;5225570;28;20365;-64
2022/10/14 15:05:03;;;;;;;10.90;9.90;;;;;;;;;;5228156;28;20070;-63
2022/10/14 15:07:34;;;;;;;11.57;10.68;;;;;;;;;;5261823;28;20218;-62
2022/10/14 15:10:05;;;;;;;10.38;9.23;;;;;;;;;;5242213;28;20020;-62
2022/10/14 15:12:41;;;;;;;10.48;9.57;;;;;;;;;;5261281;28;20119;-66